sensor_id;sensor_type;location;lat;lon;timestamp;pressure;altitude;pressure_sealevel;temperature;humidity
49311;BME280;35177;45.900;5.946;2022-08-19T00:01:16;97269.13;;;17.18;100.00
49311;BME280;35177;45.900;5.946;2022-08-19T00:03:42;97264.69;;;17.17;100.00
49311;BME280;35177;45.900;5.946;2022-08-19T00:06:08;97264.41;;;17.23;100.00
49311;BME280;35177;45.900;5.946;2022-08-19T00:08:35;97262.75;;;17.02;100.00
49311;BME280;35177;45.900;5.946;2022-08-19T00:11:00;97268.81;;;16.88;100.00
49311;BME280;35177;45.900;5.946;2022-08-19T00:13:26;97268.28;;;16.98;100.00
49311;BME280;35177;45.900;5.946;2022-08-19T00:15:54;97266.69;;;16.97;100.00
49311;BME280;35177;45.900;5.946;2022-08-19T00:18:20;97267.09;;;16.99;100.00
49311;BME280;35177;45.900;5.946;2022-08-19T00:20:46;97261.88;;;16.98;100.00
49311;BME280;35177;45.900;5.946;2022-08-19T00:23:11;97261.88;;;16.82;100.00
49311;BME280;35177;45.900;5.946;2022-08-19T00:25:37;97256.34;;;16.85;100.00
49311;BME280;35177;45.900;5.946;2022-08-19T00:28:03;97260.31;;;17.00;100.00
49311;BME280;35177;45.900;5.946;2022-08-19T00:30:29;97260.34;;;16.84;100.00
49311;BME280;35177;45.900;5.946;2022-08-19T00:32:55;97262.53;;;16.75;100.00
49311;BME280;35177;45.900;5.946;2022-08-19T00:35:21;97266.41;;;16.86;100.00
49311;BME280;35177;45.900;5.946;2022-08-19T00:37:50;97266.03;;;16.88;100.00
49311;BME280;35177;45.900;5.946;2022-08-19T00:40:16;97250.66;;;16.82;100.00
49311;BME280;35177;45.900;5.946;2022-08-19T00:42:43;97251.47;;;16.82;100.00
49311;BME280;35177;45.900;5.946;2022-08-19T00:45:24;97255.25;;;16.54;100.00
49311;BME280;35177;45.900;5.946;2022-08-19T00:47:50;97254.88;;;16.56;100.00
49311;BME280;35177;45.900;5.946;2022-08-19T00:50:18;97257.81;;;16.79;100.00
49311;BME280;35177;45.900;5.946;2022-08-19T00:52:47;97248.63;;;16.79;100.00
49311;BME280;35177;45.900;5.946;2022-08-19T00:55:25;97256.81;;;16.88;100.00
49311;BME280;35177;45.900;5.946;2022-08-19T00:57:55;97247.88;;;16.82;100.00
49311;BME280;35177;45.900;5.946;2022-08-19T01:00:23;97245.16;;;16.85;100.00
49311;BME280;35177;45.900;5.946;2022-08-19T01:02:49;97251.50;;;16.66;100.00
49311;BME280;35177;45.900;5.946;2022-08-19T01:05:22;97258.91;;;16.75;100.00
49311;BME280;35177;45.900;5.946;2022-08-19T01:07:49;97260.91;;;16.74;100.00
49311;BME280;35177;45.900;5.946;2022-08-19T01:10:21;97257.19;;;16.70;100.00
49311;BME280;35177;45.900;5.946;2022-08-19T01:12:48;97259.19;;;16.69;100.00
49311;BME280;35177;45.900;5.946;2022-08-19T01:15:16;97263.47;;;16.63;100.00
49311;BME280;35177;45.900;5.946;2022-08-19T01:17:43;97270.69;;;16.64;100.00
49311;BME280;35177;45.900;5.946;2022-08-19T01:20:16;97258.66;;;16.64;100.00
49311;BME280;35177;45.900;5.946;2022-08-19T01:25:13;97255.66;;;16.73;100.00
49311;BME280;35177;45.900;5.946;2022-08-19T01:27:41;97250.44;;;16.55;100.00
49311;BME280;35177;45.900;5.946;2022-08-19T01:30:09;97255.34;;;16.58;100.00
49311;BME280;35177;45.900;5.946;2022-08-19T01:32:35;97254.31;;;16.66;100.00
49311;BME280;35177;45.900;5.946;2022-08-19T01:35:02;97248.00;;;16.69;100.00
49311;BME280;35177;45.900;5.946;2022-08-19T01:37:29;97244.97;;;16.78;100.00
49311;BME280;35177;45.900;5.946;2022-08-19T01:39:55;97246.16;;;16.77;100.00
49311;BME280;35177;45.900;5.946;2022-08-19T01:42:21;97255.66;;;16.73;100.00
49311;BME280;35177;45.900;5.946;2022-08-19T01:44:47;97251.94;;;16.84;100.00
49311;BME280;35177;45.900;5.946;2022-08-19T01:47:12;97258.34;;;16.85;100.00
49311;BME280;35177;45.900;5.946;2022-08-19T01:49:38;97257.44;;;16.81;100.00
49311;BME280;35177;45.900;5.946;2022-08-19T01:52:05;97261.72;;;16.75;100.00
49311;BME280;35177;45.900;5.946;2022-08-19T01:54:30;97252.72;;;16.49;100.00
49311;BME280;35177;45.900;5.946;2022-08-19T01:57:12;97253.06;;;16.64;100.00
49311;BME280;35177;45.900;5.946;2022-08-19T01:59:40;97264.69;;;16.82;100.00
49311;BME280;35177;45.900;5.946;2022-08-19T02:02:06;97265.66;;;16.90;100.00
49311;BME280;35177;45.900;5.946;2022-08-19T02:04:36;97268.03;;;16.88;100.00
49311;BME280;35177;45.900;5.946;2022-08-19T02:07:06;97268.28;;;16.82;100.00
49311;BME280;35177;45.900;5.946;2022-08-19T02:09:33;97283.66;;;16.89;100.00
49311;BME280;35177;45.900;5.946;2022-08-19T02:11:59;97287.00;;;16.94;100.00
49311;BME280;35177;45.900;5.946;2022-08-19T02:14:24;97282.47;;;16.90;100.00
49311;BME280;35177;45.900;5.946;2022-08-19T02:16:50;97292.16;;;16.92;100.00
49311;BME280;35177;45.900;5.946;2022-08-19T02:19:16;97284.66;;;16.96;100.00
49311;BME280;35177;45.900;5.946;2022-08-19T02:21:41;97286.38;;;16.85;100.00
49311;BME280;35177;45.900;5.946;2022-08-19T02:24:08;97280.03;;;16.88;100.00
49311;BME280;35177;45.900;5.946;2022-08-19T02:26:34;97278.03;;;16.89;100.00
49311;BME280;35177;45.900;5.946;2022-08-19T02:28:59;97285.28;;;16.90;100.00
49311;BME280;35177;45.900;5.946;2022-08-19T02:31:26;97284.75;;;17.00;100.00
49311;BME280;35177;45.900;5.946;2022-08-19T02:33:53;97289.38;;;16.92;100.00
49311;BME280;35177;45.900;5.946;2022-08-19T02:36:20;97286.91;;;16.91;100.00
49311;BME280;35177;45.900;5.946;2022-08-19T02:38:47;97287.97;;;17.02;100.00
49311;BME280;35177;45.900;5.946;2022-08-19T02:41:21;97282.28;;;16.98;100.00
49311;BME280;35177;45.900;5.946;2022-08-19T02:43:47;97282.84;;;17.04;100.00
49311;BME280;35177;45.900;5.946;2022-08-19T02:46:19;97284.41;;;17.21;100.00
49311;BME280;35177;45.900;5.946;2022-08-19T02:48:49;97284.50;;;17.25;100.00
49311;BME280;35177;45.900;5.946;2022-08-19T02:51:17;97289.72;;;17.26;100.00
49311;BME280;35177;45.900;5.946;2022-08-19T02:53:43;97284.13;;;17.26;100.00
49311;BME280;35177;45.900;5.946;2022-08-19T02:56:09;97279.69;;;17.25;100.00
49311;BME280;35177;45.900;5.946;2022-08-19T02:58:35;97285.66;;;17.24;100.00
49311;BME280;35177;45.900;5.946;2022-08-19T03:01:00;97285.00;;;17.11;100.00
49311;BME280;35177;45.900;5.946;2022-08-19T03:03:26;97296.06;;;17.04;100.00
49311;BME280;35177;45.900;5.946;2022-08-19T03:05:51;97303.13;;;16.97;100.00
49311;BME280;35177;45.900;5.946;2022-08-19T03:08:17;97293.00;;;16.93;100.00
49311;BME280;35177;45.900;5.946;2022-08-19T03:10:45;97297.84;;;16.96;100.00
49311;BME280;35177;45.900;5.946;2022-08-19T03:13:16;97296.69;;;16.97;100.00
49311;BME280;35177;45.900;5.946;2022-08-19T03:15:44;97304.56;;;16.91;100.00
49311;BME280;35177;45.900;5.946;2022-08-19T03:18:10;97310.00;;;16.84;100.00
49311;BME280;35177;45.900;5.946;2022-08-19T03:20:47;97303.28;;;16.73;100.00
49311;BME280;35177;45.900;5.946;2022-08-19T03:23:14;97314.69;;;16.64;100.00
49311;BME280;35177;45.900;5.946;2022-08-19T03:25:42;97315.06;;;16.62;100.00
49311;BME280;35177;45.900;5.946;2022-08-19T03:28:10;97320.22;;;16.60;100.00
49311;BME280;35177;45.900;5.946;2022-08-19T03:30:35;97322.41;;;16.51;100.00
49311;BME280;35177;45.900;5.946;2022-08-19T03:33:01;97336.78;;;16.49;100.00
49311;BME280;35177;45.900;5.946;2022-08-19T03:35:27;97326.75;;;16.48;100.00
49311;BME280;35177;45.900;5.946;2022-08-19T03:37:53;97336.69;;;16.46;100.00
49311;BME280;35177;45.900;5.946;2022-08-19T03:40:18;97333.41;;;16.44;100.00
49311;BME280;35177;45.900;5.946;2022-08-19T03:42:44;97336.13;;;16.40;100.00
49311;BME280;35177;45.900;5.946;2022-08-19T03:45:11;97342.81;;;16.35;100.00
49311;BME280;35177;45.900;5.946;2022-08-19T03:47:37;97352.75;;;16.33;100.00
49311;BME280;35177;45.900;5.946;2022-08-19T03:50:03;97351.75;;;16.25;100.00
49311;BME280;35177;45.900;5.946;2022-08-19T03:52:29;97359.31;;;16.25;100.00
49311;BME280;35177;45.900;5.946;2022-08-19T03:54:55;97359.47;;;16.16;100.00
49311;BME280;35177;45.900;5.946;2022-08-19T03:57:21;97357.84;;;16.15;100.00
49311;BME280;35177;45.900;5.946;2022-08-19T03:59:46;97366.97;;;16.12;100.00
49311;BME280;35177;45.900;5.946;2022-08-19T04:02:13;97362.47;;;16.23;100.00
49311;BME280;35177;45.900;5.946;2022-08-19T04:04:42;97371.50;;;16.16;100.00
49311;BME280;35177;45.900;5.946;2022-08-19T04:07:09;97364.97;;;16.12;100.00
49311;BME280;35177;45.900;5.946;2022-08-19T04:09:35;97367.69;;;16.09;100.00
49311;BME280;35177;45.900;5.946;2022-08-19T04:12:04;97369.47;;;16.01;100.00
49311;BME280;35177;45.900;5.946;2022-08-19T04:14:31;97375.53;;;16.03;100.00
49311;BME280;35177;45.900;5.946;2022-08-19T04:16:57;97375.91;;;16.01;100.00
49311;BME280;35177;45.900;5.946;2022-08-19T04:19:25;97365.88;;;16.00;100.00
49311;BME280;35177;45.900;5.946;2022-08-19T04:21:52;97374.63;;;15.99;100.00
49311;BME280;35177;45.900;5.946;2022-08-19T04:24:19;97379.50;;;16.02;100.00
49311;BME280;35177;45.900;5.946;2022-08-19T04:26:45;97378.25;;;15.99;100.00
49311;BME280;35177;45.900;5.946;2022-08-19T04:29:14;97374.63;;;15.99;100.00
49311;BME280;35177;45.900;5.946;2022-08-19T04:31:42;97387.00;;;15.98;100.00
49311;BME280;35177;45.900;5.946;2022-08-19T04:34:10;97386.44;;;15.92;100.00
49311;BME280;35177;45.900;5.946;2022-08-19T04:36:38;97389.59;;;15.90;100.00
49311;BME280;35177;45.900;5.946;2022-08-19T04:39:15;97403.38;;;15.83;100.00
49311;BME280;35177;45.900;5.946;2022-08-19T04:41:42;97397.53;;;15.88;100.00
49311;BME280;35177;45.900;5.946;2022-08-19T04:44:27;97407.34;;;15.82;100.00
49311;BME280;35177;45.900;5.946;2022-08-19T04:46:56;97408.72;;;15.88;100.00
49311;BME280;35177;45.900;5.946;2022-08-19T04:49:22;97409.53;;;15.89;100.00
49311;BME280;35177;45.900;5.946;2022-08-19T04:51:49;97409.19;;;15.90;100.00
49311;BME280;35177;45.900;5.946;2022-08-19T04:54:17;97413.53;;;15.88;100.00
49311;BME280;35177;45.900;5.946;2022-08-19T04:56:43;97413.84;;;15.86;100.00
49311;BME280;35177;45.900;5.946;2022-08-19T04:59:09;97416.41;;;15.92;100.00
49311;BME280;35177;45.900;5.946;2022-08-19T05:01:36;97420.06;;;16.08;100.00
49311;BME280;35177;45.900;5.946;2022-08-19T05:04:04;97425.84;;;15.99;100.00
49311;BME280;35177;45.900;5.946;2022-08-19T05:06:31;97423.63;;;15.93;100.00
49311;BME280;35177;45.900;5.946;2022-08-19T05:09:01;97434.13;;;15.96;100.00
49311;BME280;35177;45.900;5.946;2022-08-19T05:11:31;97430.16;;;15.97;100.00
49311;BME280;35177;45.900;5.946;2022-08-19T05:13:57;97436.19;;;15.99;100.00
49311;BME280;35177;45.900;5.946;2022-08-19T05:16:24;97439.94;;;16.03;100.00
49311;BME280;35177;45.900;5.946;2022-08-19T05:18:50;97445.91;;;15.89;100.00
49311;BME280;35177;45.900;5.946;2022-08-19T05:21:35;97449.59;;;16.05;100.00
49311;BME280;35177;45.900;5.946;2022-08-19T05:24:21;97460.66;;;16.14;100.00
49311;BME280;35177;45.900;5.946;2022-08-19T05:26:49;97463.75;;;16.25;100.00
49311;BME280;35177;45.900;5.946;2022-08-19T05:29:17;97449.03;;;16.28;100.00
49311;BME280;35177;45.900;5.946;2022-08-19T05:31:44;97451.00;;;16.56;100.00
49311;BME280;35177;45.900;5.946;2022-08-19T05:34:10;97461.97;;;16.33;100.00
49311;BME280;35177;45.900;5.946;2022-08-19T05:36:41;97474.34;;;16.32;100.00
49311;BME280;35177;45.900;5.946;2022-08-19T05:39:10;97485.44;;;16.28;100.00
49311;BME280;35177;45.900;5.946;2022-08-19T05:41:36;97476.28;;;16.15;100.00
49311;BME280;35177;45.900;5.946;2022-08-19T05:44:05;97480.41;;;16.34;100.00
49311;BME280;35177;45.900;5.946;2022-08-19T05:46:34;97473.22;;;16.49;100.00
49311;BME280;35177;45.900;5.946;2022-08-19T05:49:00;97467.38;;;16.70;100.00
49311;BME280;35177;45.900;5.946;2022-08-19T05:51:26;97474.72;;;16.75;100.00
49311;BME280;35177;45.900;5.946;2022-08-19T05:53:51;97475.47;;;16.43;100.00
49311;BME280;35177;45.900;5.946;2022-08-19T05:56:17;97481.34;;;16.54;100.00
49311;BME280;35177;45.900;5.946;2022-08-19T05:58:44;97480.81;;;17.09;100.00
49311;BME280;35177;45.900;5.946;2022-08-19T06:01:13;97477.78;;;16.69;100.00
49311;BME280;35177;45.900;5.946;2022-08-19T06:03:39;97478.00;;;16.48;100.00
49311;BME280;35177;45.900;5.946;2022-08-19T06:06:06;97486.56;;;16.40;100.00
49311;BME280;35177;45.900;5.946;2022-08-19T06:08:34;97489.59;;;16.34;100.00
49311;BME280;35177;45.900;5.946;2022-08-19T06:13:43;97491.78;;;17.14;100.00
49311;BME280;35177;45.900;5.946;2022-08-19T06:16:09;97492.13;;;17.12;100.00
49311;BME280;35177;45.900;5.946;2022-08-19T06:18:34;97481.63;;;17.25;100.00
49311;BME280;35177;45.900;5.946;2022-08-19T06:21:00;97491.72;;;17.62;100.00
49311;BME280;35177;45.900;5.946;2022-08-19T06:23:29;97497.56;;;17.21;100.00
49311;BME280;35177;45.900;5.946;2022-08-19T06:25:54;97500.75;;;17.20;100.00
49311;BME280;35177;45.900;5.946;2022-08-19T06:28:20;97505.09;;;17.17;100.00
49311;BME280;35177;45.900;5.946;2022-08-19T06:30:46;97505.63;;;16.78;100.00
49311;BME280;35177;45.900;5.946;2022-08-19T06:33:11;97518.66;;;16.42;100.00
49311;BME280;35177;45.900;5.946;2022-08-19T06:35:41;97524.44;;;16.21;100.00
49311;BME280;35177;45.900;5.946;2022-08-19T06:38:07;97528.53;;;16.24;100.00
49311;BME280;35177;45.900;5.946;2022-08-19T06:40:35;97530.34;;;16.32;100.00
49311;BME280;35177;45.900;5.946;2022-08-19T06:43:01;97536.53;;;16.37;100.00
49311;BME280;35177;45.900;5.946;2022-08-19T06:45:27;97535.56;;;16.46;100.00
49311;BME280;35177;45.900;5.946;2022-08-19T06:47:53;97538.47;;;16.49;100.00
49311;BME280;35177;45.900;5.946;2022-08-19T06:50:24;97536.78;;;16.32;100.00
49311;BME280;35177;45.900;5.946;2022-08-19T06:52:49;97540.59;;;16.40;100.00
49311;BME280;35177;45.900;5.946;2022-08-19T06:55:15;97545.41;;;16.40;100.00
49311;BME280;35177;45.900;5.946;2022-08-19T06:57:41;97541.19;;;16.46;100.00
49311;BME280;35177;45.900;5.946;2022-08-19T07:00:08;97540.50;;;16.36;100.00
49311;BME280;35177;45.900;5.946;2022-08-19T07:02:40;97543.34;;;16.52;100.00
49311;BME280;35177;45.900;5.946;2022-08-19T07:05:06;97551.16;;;16.59;100.00
49311;BME280;35177;45.900;5.946;2022-08-19T07:07:32;97552.63;;;16.69;100.00
49311;BME280;35177;45.900;5.946;2022-08-19T07:09:58;97553.53;;;16.73;100.00
49311;BME280;35177;45.900;5.946;2022-08-19T07:12:24;97556.94;;;16.66;100.00
49311;BME280;35177;45.900;5.946;2022-08-19T07:14:49;97563.84;;;16.69;100.00
49311;BME280;35177;45.900;5.946;2022-08-19T07:17:15;97570.00;;;16.75;100.00
49311;BME280;35177;45.900;5.946;2022-08-19T07:19:41;97574.13;;;16.65;100.00
49311;BME280;35177;45.900;5.946;2022-08-19T07:22:10;97574.91;;;16.78;100.00
49311;BME280;35177;45.900;5.946;2022-08-19T07:24:36;97567.97;;;16.88;100.00
49311;BME280;35177;45.900;5.946;2022-08-19T07:27:04;97572.91;;;16.78;100.00
49311;BME280;35177;45.900;5.946;2022-08-19T07:29:32;97582.56;;;16.81;100.00
49311;BME280;35177;45.900;5.946;2022-08-19T07:32:00;97578.97;;;16.80;100.00
49311;BME280;35177;45.900;5.946;2022-08-19T07:34:29;97581.63;;;16.89;100.00
49311;BME280;35177;45.900;5.946;2022-08-19T07:36:55;97587.09;;;16.98;100.00
49311;BME280;35177;45.900;5.946;2022-08-19T07:39:25;97591.72;;;17.06;100.00
49311;BME280;35177;45.900;5.946;2022-08-19T07:41:51;97589.34;;;17.08;100.00
49311;BME280;35177;45.900;5.946;2022-08-19T07:44:19;97586.72;;;16.99;100.00
49311;BME280;35177;45.900;5.946;2022-08-19T07:46:48;97595.75;;;16.93;100.00
49311;BME280;35177;45.900;5.946;2022-08-19T07:49:14;97589.78;;;16.94;100.00
49311;BME280;35177;45.900;5.946;2022-08-19T07:51:53;97597.84;;;16.96;100.00
49311;BME280;35177;45.900;5.946;2022-08-19T07:54:20;97589.78;;;16.94;100.00
49311;BME280;35177;45.900;5.946;2022-08-19T07:56:46;97602.78;;;16.86;100.00
49311;BME280;35177;45.900;5.946;2022-08-19T07:59:12;97603.25;;;16.76;100.00
49311;BME280;35177;45.900;5.946;2022-08-19T08:01:38;97607.69;;;16.77;100.00
49311;BME280;35177;45.900;5.946;2022-08-19T08:04:06;97611.44;;;16.81;100.00
49311;BME280;35177;45.900;5.946;2022-08-19T08:06:50;97608.16;;;16.92;100.00
49311;BME280;35177;45.900;5.946;2022-08-19T08:09:37;97605.94;;;16.85;100.00
49311;BME280;35177;45.900;5.946;2022-08-19T08:12:13;97603.94;;;16.85;100.00
49311;BME280;35177;45.900;5.946;2022-08-19T08:14:45;97600.03;;;17.02;100.00
49311;BME280;35177;45.900;5.946;2022-08-19T08:17:13;97597.84;;;16.96;100.00
49311;BME280;35177;45.900;5.946;2022-08-19T08:19:41;97598.31;;;16.98;100.00
49311;BME280;35177;45.900;5.946;2022-08-19T08:22:07;97597.22;;;17.02;100.00
49311;BME280;35177;45.900;5.946;2022-08-19T08:24:53;97612.63;;;17.09;100.00
49311;BME280;35177;45.900;5.946;2022-08-19T08:27:19;97613.34;;;17.22;100.00
49311;BME280;35177;45.900;5.946;2022-08-19T08:29:45;97613.72;;;17.20;100.00
49311;BME280;35177;45.900;5.946;2022-08-19T08:32:10;97611.84;;;17.40;100.00
49311;BME280;35177;45.900;5.946;2022-08-19T08:34:36;97608.63;;;17.54;100.00
49311;BME280;35177;45.900;5.946;2022-08-19T08:37:02;97610.88;;;17.64;100.00
49311;BME280;35177;45.900;5.946;2022-08-19T08:39:28;97608.06;;;17.48;100.00
49311;BME280;35177;45.900;5.946;2022-08-19T08:47:04;97611.03;;;17.56;100.00
49311;BME280;35177;45.900;5.946;2022-08-19T08:49:54;97622.94;;;17.65;100.00
49311;BME280;35177;45.900;5.946;2022-08-19T08:52:31;97617.56;;;17.60;100.00
49311;BME280;35177;45.900;5.946;2022-08-19T08:55:17;97629.34;;;17.65;100.00
49311;BME280;35177;45.900;5.946;2022-08-19T09:00:35;97626.25;;;17.87;100.00
49311;BME280;35177;45.900;5.946;2022-08-19T09:03:15;97636.16;;;17.96;100.00
49311;BME280;35177;45.900;5.946;2022-08-19T09:06:04;97639.03;;;18.16;100.00
49311;BME280;35177;45.900;5.946;2022-08-19T09:08:49;97634.53;;;18.31;100.00
49311;BME280;35177;45.900;5.946;2022-08-19T09:14:18;97631.81;;;18.35;100.00
49311;BME280;35177;45.900;5.946;2022-08-19T09:16:46;97632.22;;;18.53;100.00
49311;BME280;35177;45.900;5.946;2022-08-19T09:19:13;97633.69;;;18.46;100.00
49311;BME280;35177;45.900;5.946;2022-08-19T09:21:39;97637.78;;;18.49;100.00
49311;BME280;35177;45.900;5.946;2022-08-19T09:24:05;97642.00;;;18.59;100.00
49311;BME280;35177;45.900;5.946;2022-08-19T09:26:32;97643.72;;;18.63;100.00
49311;BME280;35177;45.900;5.946;2022-08-19T09:28:58;97635.78;;;18.69;100.00
49311;BME280;35177;45.900;5.946;2022-08-19T09:31:28;97632.63;;;18.90;100.00
49311;BME280;35177;45.900;5.946;2022-08-19T09:33:55;97628.00;;;18.98;100.00
49311;BME280;35177;45.900;5.946;2022-08-19T09:36:25;97632.34;;;19.15;100.00
49311;BME280;35177;45.900;5.946;2022-08-19T09:38:52;97631.31;;;19.23;100.00
49311;BME280;35177;45.900;5.946;2022-08-19T09:41:20;97641.47;;;19.51;100.00
49311;BME280;35177;45.900;5.946;2022-08-19T09:43:49;97631.72;;;19.68;100.00
49311;BME280;35177;45.900;5.946;2022-08-19T09:46:18;97626.38;;;19.40;100.00
49311;BME280;35177;45.900;5.946;2022-08-19T09:48:47;97628.56;;;19.50;100.00
49311;BME280;35177;45.900;5.946;2022-08-19T09:51:19;97627.69;;;19.46;100.00
49311;BME280;35177;45.900;5.946;2022-08-19T09:53:47;97639.59;;;19.36;100.00
49311;BME280;35177;45.900;5.946;2022-08-19T09:56:16;97630.91;;;19.45;100.00
49311;BME280;35177;45.900;5.946;2022-08-19T09:58:42;97636.78;;;19.59;100.00
49311;BME280;35177;45.900;5.946;2022-08-19T10:01:08;97638.78;;;19.82;100.00
49311;BME280;35177;45.900;5.946;2022-08-19T10:03:35;97637.44;;;19.95;100.00
49311;BME280;35177;45.900;5.946;2022-08-19T10:06:03;97635.69;;;19.87;100.00
49311;BME280;35177;45.900;5.946;2022-08-19T10:08:32;97643.19;;;20.02;100.00
49311;BME280;35177;45.900;5.946;2022-08-19T10:10:59;97641.47;;;20.21;100.00
49311;BME280;35177;45.900;5.946;2022-08-19T10:13:27;97639.44;;;20.21;100.00
49311;BME280;35177;45.900;5.946;2022-08-19T10:15:55;97640.59;;;20.17;100.00
49311;BME280;35177;45.900;5.946;2022-08-19T10:18:22;97641.06;;;20.22;100.00
49311;BME280;35177;45.900;5.946;2022-08-19T10:20:49;97642.72;;;20.23;100.00
49311;BME280;35177;45.900;5.946;2022-08-19T10:23:16;97635.66;;;20.37;100.00
49311;BME280;35177;45.900;5.946;2022-08-19T10:25:42;97642.53;;;20.39;100.00
49311;BME280;35177;45.900;5.946;2022-08-19T10:28:09;97639.22;;;21.22;100.00
49311;BME280;35177;45.900;5.946;2022-08-19T10:30:37;97632.09;;;21.35;100.00
49311;BME280;35177;45.900;5.946;2022-08-19T10:33:03;97639.66;;;21.27;100.00
49311;BME280;35177;45.900;5.946;2022-08-19T10:35:30;97644.63;;;21.75;100.00
49311;BME280;35177;45.900;5.946;2022-08-19T10:37:56;97642.63;;;22.28;100.00
49311;BME280;35177;45.900;5.946;2022-08-19T10:40:27;97640.94;;;22.12;100.00
49311;BME280;35177;45.900;5.946;2022-08-19T10:42:54;97644.63;;;21.75;100.00
49311;BME280;35177;45.900;5.946;2022-08-19T10:45:21;97644.31;;;21.46;100.00
49311;BME280;35177;45.900;5.946;2022-08-19T10:47:48;97658.13;;;21.55;100.00
49311;BME280;35177;45.900;5.946;2022-08-19T10:50:14;97647.63;;;21.93;100.00
49311;BME280;35177;45.900;5.946;2022-08-19T10:53:03;97646.59;;;22.16;100.00
49311;BME280;35177;45.900;5.946;2022-08-19T10:55:29;97651.41;;;22.64;100.00
49311;BME280;35177;45.900;5.946;2022-08-19T10:58:15;97654.38;;;22.30;100.00
49311;BME280;35177;45.900;5.946;2022-08-19T11:00:41;97656.28;;;21.70;100.00
49311;BME280;35177;45.900;5.946;2022-08-19T11:03:10;97653.50;;;21.40;100.00
49311;BME280;35177;45.900;5.946;2022-08-19T11:05:36;97649.53;;;21.44;100.00
49311;BME280;35177;45.900;5.946;2022-08-19T11:08:03;97645.19;;;21.54;100.00
49311;BME280;35177;45.900;5.946;2022-08-19T11:10:28;97647.25;;;21.98;100.00
49311;BME280;35177;45.900;5.946;2022-08-19T11:12:54;97645.88;;;22.26;100.00
49311;BME280;35177;45.900;5.946;2022-08-19T11:15:20;97646.34;;;22.36;100.00
49311;BME280;35177;45.900;5.946;2022-08-19T11:17:46;97645.91;;;22.30;100.00
49311;BME280;35177;45.900;5.946;2022-08-19T11:20:14;97633.88;;;22.40;100.00
49311;BME280;35177;45.900;5.946;2022-08-19T11:22:40;97643.66;;;22.54;100.00
49311;BME280;35177;45.900;5.946;2022-08-19T11:25:08;97645.19;;;22.44;100.00
49311;BME280;35177;45.900;5.946;2022-08-19T11:27:40;97643.44;;;22.25;100.00
49311;BME280;35177;45.900;5.946;2022-08-19T11:30:12;97645.31;;;22.06;100.00
49311;BME280;35177;45.900;5.946;2022-08-19T11:32:37;97646.03;;;21.96;100.00
49311;BME280;35177;45.900;5.946;2022-08-19T11:35:03;97645.59;;;21.90;100.00
49311;BME280;35177;45.900;5.946;2022-08-19T11:37:29;97652.78;;;21.80;100.00
49311;BME280;35177;45.900;5.946;2022-08-19T11:39:54;97651.28;;;21.94;100.00
49311;BME280;35177;45.900;5.946;2022-08-19T11:42:20;97649.50;;;22.27;100.00
49311;BME280;35177;45.900;5.946;2022-08-19T11:45:04;97651.41;;;22.64;100.00
49311;BME280;35177;45.900;5.946;2022-08-19T11:47:30;97649.50;;;22.83;100.00
49311;BME280;35177;45.900;5.946;2022-08-19T11:49:56;97655.03;;;22.65;100.00
49311;BME280;35177;45.900;5.946;2022-08-19T11:52:21;97651.81;;;22.70;100.00
49311;BME280;35177;45.900;5.946;2022-08-19T11:54:47;97655.16;;;22.83;100.00
49311;BME280;35177;45.900;5.946;2022-08-19T11:57:12;97653.81;;;23.47;100.00
49311;BME280;35177;45.900;5.946;2022-08-19T11:59:42;97653.38;;;23.41;100.00
49311;BME280;35177;45.900;5.946;2022-08-19T12:02:07;97650.22;;;23.71;100.00
49311;BME280;35177;45.900;5.946;2022-08-19T12:04:34;97648.91;;;23.25;100.00
49311;BME280;35177;45.900;5.946;2022-08-19T12:06:59;97651.00;;;23.54;100.00
49311;BME280;35177;45.900;5.946;2022-08-19T12:09:25;97646.56;;;23.64;100.00
49311;BME280;35177;45.900;5.946;2022-08-19T12:11:51;97656.34;;;24.17;100.00
49311;BME280;35177;45.900;5.946;2022-08-19T12:14:16;97647.41;;;24.65;100.00
49311;BME280;35177;45.900;5.946;2022-08-19T12:16:44;97639.66;;;23.47;100.00
49311;BME280;35177;45.900;5.946;2022-08-19T12:19:11;97644.03;;;23.26;100.00
49311;BME280;35177;45.900;5.946;2022-08-19T12:21:36;97640.28;;;23.04;100.00
49311;BME280;35177;45.900;5.946;2022-08-19T12:24:04;97646.69;;;22.30;100.00
49311;BME280;35177;45.900;5.946;2022-08-19T12:26:31;97644.47;;;22.54;100.00
49311;BME280;35177;45.900;5.946;2022-08-19T12:28:56;97643.03;;;22.86;100.00
49311;BME280;35177;45.900;5.946;2022-08-19T12:31:24;97640.16;;;22.78;100.00
49311;BME280;35177;45.900;5.946;2022-08-19T12:33:49;97643.72;;;23.60;100.00
49311;BME280;35177;45.900;5.946;2022-08-19T12:36:15;97639.31;;;23.81;100.00
49311;BME280;35177;45.900;5.946;2022-08-19T12:38:42;97635.66;;;24.23;100.00
49311;BME280;35177;45.900;5.946;2022-08-19T12:41:12;97633.22;;;24.54;100.00
49311;BME280;35177;45.900;5.946;2022-08-19T12:43:39;97638.06;;;24.58;100.00
49311;BME280;35177;45.900;5.946;2022-08-19T12:46:05;97633.88;;;25.09;100.00
49311;BME280;35177;45.900;5.946;2022-08-19T12:48:34;97643.28;;;24.95;100.00
49311;BME280;35177;45.900;5.946;2022-08-19T12:51:00;97630.31;;;24.91;100.00
49311;BME280;35177;45.900;5.946;2022-08-19T12:53:26;97633.41;;;25.25;100.00
49311;BME280;35177;45.900;5.946;2022-08-19T12:55:59;97635.88;;;25.16;100.00
49311;BME280;35177;45.900;5.946;2022-08-19T12:58:25;97628.84;;;25.49;100.00
49311;BME280;35177;45.900;5.946;2022-08-19T13:00:52;97629.38;;;25.19;100.00
49311;BME280;35177;45.900;5.946;2022-08-19T13:03:17;97627.69;;;25.29;100.00
49311;BME280;35177;45.900;5.946;2022-08-19T13:05:43;97636.75;;;25.02;100.00
49311;BME280;35177;45.900;5.946;2022-08-19T13:08:08;97630.41;;;24.22;100.00
49311;BME280;35177;45.900;5.946;2022-08-19T13:10:35;97634.78;;;24.88;100.00